PWSweather.com
Personal Weather Stations
Station Observations
KJ4AJP
Beautiful Downtown Gardner, Martin, TN 38237

Beautiful Downtown GardnerMartin, TN 38237

Lat: 36.358, Lon: -88.8994

Elevation: 384.3

Station Type: TP1080WC

http://weather.mambm.com/

High Low Average
Temperature 91.8°F33.2°C 66.9°F19.4°C 72.9°F22.7°C
Dew Point 87.1°F30.6°C 66.7°F19.3°C 71.2°F21.8°C
Winds 2.2 mph 3.5 kmh Calm Calm Calm SECalm SE
Wind Gusts 9.2 mph14.8 kmh -- 3.0 mph4.8 kmh
Humidity 99% 79% 95%
Pressure 29.83 in1010.2 mb 29.78 in1008.5 mb -
Precipitation 0.06 in1.5 mm - -
Hour Temp Dew Point Humidity Winds Wind Gusts Pressure Precip Precip Rate Daily Precip Total
12:00 AM 68.0°F20.0°C 67.7°F19.8°C 99% 0.7 mph N1.1 kmh N 3.8 mph6.1 kmh 29.81 in1009.5 mb 0.05 in1.3 mm 0.00 in0.0 mm 0.05 in1.3 mm
12:15 AM 68.0°F20.0°C 67.7°F19.8°C 99% 0.7 mph N1.1 kmh N 4.5 mph7.2 kmh 29.80 in1009.1 mb 0.02 in0.5 mm 0.00 in0.0 mm 0.05 in1.3 mm
12:30 AM 67.6°F19.8°C 67.4°F19.7°C 99% 0.7 mph NNE1.1 kmh NNE 3.1 mph5.0 kmh 29.80 in1009.1 mb 0.01 in0.3 mm 0.00 in0.0 mm 0.05 in1.3 mm
12:45 AM 67.6°F19.8°C 67.4°F19.7°C 99% Calm Calm 3.1 mph5.0 kmh 29.80 in1009.1 mb 0.00 in0.0 mm 0.00 in0.0 mm 0.05 in1.3 mm
01:00 AM 67.3°F19.6°C 67.0°F19.4°C 99% Calm Calm 2.2 mph3.5 kmh 29.80 in1009.1 mb 0.00 in0.0 mm 0.00 in0.0 mm 0.05 in1.3 mm
01:15 AM 67.1°F19.5°C 66.8°F19.3°C 99% Calm Calm 0.7 mph1.1 kmh 29.80 in1009.1 mb 0.00 in0.0 mm 0.00 in0.0 mm 0.05 in1.3 mm
01:30 AM 67.1°F19.5°C 66.8°F19.3°C 99% Calm Calm 0.7 mph1.1 kmh 29.80 in1009.1 mb 0.00 in0.0 mm 0.00 in0.0 mm 0.05 in1.3 mm
01:45 AM 67.1°F19.5°C 66.8°F19.3°C 99% Calm Calm -- 29.80 in1009.1 mb 0.00 in0.0 mm 0.00 in0.0 mm 0.05 in1.3 mm
02:00 AM 66.9°F19.4°C 66.7°F19.3°C 99% Calm Calm 0.7 mph1.1 kmh 29.80 in1009.1 mb 0.00 in0.0 mm 0.00 in0.0 mm 0.05 in1.3 mm
02:15 AM 67.1°F19.5°C 66.8°F19.3°C 99% Calm Calm 0.7 mph1.1 kmh 29.80 in1009.1 mb 0.00 in0.0 mm 0.00 in0.0 mm 0.05 in1.3 mm
02:30 AM 66.9°F19.4°C 66.7°F19.3°C 99% Calm Calm 0.7 mph1.1 kmh 29.80 in1009.1 mb 0.00 in0.0 mm 0.00 in0.0 mm 0.05 in1.3 mm
02:45 AM 67.1°F19.5°C 66.8°F19.3°C 99% Calm Calm 1.6 mph2.6 kmh 29.80 in1009.1 mb 0.00 in0.0 mm 0.00 in0.0 mm 0.05 in1.3 mm
03:00 AM 67.1°F19.5°C 66.8°F19.3°C 99% Calm Calm -- 29.80 in1009.1 mb 0.00 in0.0 mm 0.00 in0.0 mm 0.05 in1.3 mm
03:15 AM 67.3°F19.6°C 67.0°F19.4°C 99% Calm Calm 0.7 mph1.1 kmh 29.80 in1009.1 mb 0.00 in0.0 mm 0.00 in0.0 mm 0.05 in1.3 mm
03:30 AM 67.3°F19.6°C 67.0°F19.4°C 99% Calm Calm 0.7 mph1.1 kmh 29.80 in1009.1 mb 0.00 in0.0 mm 0.00 in0.0 mm 0.05 in1.3 mm
03:45 AM 67.3°F19.6°C 67.0°F19.4°C 99% Calm Calm 1.6 mph2.6 kmh 29.80 in1009.1 mb 0.01 in0.3 mm 0.04 in1.0 mm 0.01 in0.3 mm
04:00 AM 67.3°F19.6°C 67.0°F19.4°C 99% Calm Calm 1.6 mph2.6 kmh 29.80 in1009.1 mb 0.01 in0.3 mm 0.00 in0.0 mm 0.01 in0.3 mm
04:15 AM 67.3°F19.6°C 67.0°F19.4°C 99% Calm Calm 1.6 mph2.6 kmh 29.80 in1009.1 mb 0.01 in0.3 mm 0.00 in0.0 mm 0.01 in0.3 mm
04:30 AM 67.3°F19.6°C 67.0°F19.4°C 99% Calm Calm 1.6 mph2.6 kmh 29.80 in1009.1 mb 0.01 in0.3 mm 0.00 in0.0 mm 0.01 in0.3 mm
04:45 AM 67.3°F19.6°C 67.0°F19.4°C 99% Calm Calm 1.6 mph2.6 kmh 29.81 in1009.5 mb 0.00 in0.0 mm 0.00 in0.0 mm 0.01 in0.3 mm
05:00 AM 67.1°F19.5°C 66.8°F19.3°C 99% Calm Calm 1.6 mph2.6 kmh 29.80 in1009.1 mb 0.00 in0.0 mm 0.00 in0.0 mm 0.01 in0.3 mm
05:15 AM 67.1°F19.5°C 66.8°F19.3°C 99% Calm Calm 1.6 mph2.6 kmh 29.80 in1009.1 mb 0.00 in0.0 mm 0.00 in0.0 mm 0.01 in0.3 mm
05:30 AM 67.1°F19.5°C 66.8°F19.3°C 99% 0.7 mph N1.1 kmh N 2.2 mph3.5 kmh 29.80 in1009.1 mb 0.00 in0.0 mm 0.00 in0.0 mm 0.01 in0.3 mm
05:45 AM 67.3°F19.6°C 67.0°F19.4°C 99% 0.7 mph NNW1.1 kmh NNW 3.1 mph5.0 kmh 29.80 in1009.1 mb 0.00 in0.0 mm 0.00 in0.0 mm 0.01 in0.3 mm
06:00 AM 67.3°F19.6°C 67.0°F19.4°C 99% Calm Calm 3.1 mph5.0 kmh 29.81 in1009.5 mb 0.00 in0.0 mm 0.00 in0.0 mm 0.01 in0.3 mm
06:15 AM 75.6°F24.2°C 75.3°F24.1°C 99% 0.7 mph N1.1 kmh N 2.2 mph3.5 kmh 29.80 in1009.1 mb 0.00 in0.0 mm 0.00 in0.0 mm 0.01 in0.3 mm
06:30 AM 67.3°F19.6°C 67.0°F19.4°C 99% 0.7 mph N1.1 kmh N 3.1 mph5.0 kmh 29.80 in1009.1 mb 0.00 in0.0 mm 0.00 in0.0 mm 0.01 in0.3 mm
06:45 AM 67.6°F19.8°C 67.4°F19.7°C 99% Calm Calm 3.1 mph5.0 kmh 29.81 in1009.5 mb 0.00 in0.0 mm 0.00 in0.0 mm 0.01 in0.3 mm
07:00 AM 68.0°F20.0°C 67.7°F19.8°C 99% Calm Calm 3.1 mph5.0 kmh 29.81 in1009.5 mb 0.00 in0.0 mm 0.00 in0.0 mm 0.01 in0.3 mm
07:15 AM 68.4°F20.2°C 68.1°F20.1°C 99% Calm Calm 1.6 mph2.6 kmh 29.81 in1009.5 mb 0.00 in0.0 mm 0.00 in0.0 mm 0.01 in0.3 mm
07:30 AM 68.5°F20.3°C 68.3°F20.2°C 99% Calm Calm 3.8 mph6.1 kmh 29.81 in1009.5 mb 0.00 in0.0 mm 0.00 in0.0 mm 0.01 in0.3 mm
07:45 AM 68.7°F20.4°C 68.5°F20.3°C 99% Calm Calm 3.8 mph6.1 kmh 29.81 in1009.5 mb 0.00 in0.0 mm 0.00 in0.0 mm 0.01 in0.3 mm
08:00 AM 68.9°F20.5°C 68.6°F20.3°C 99% 0.7 mph N1.1 kmh N 3.8 mph6.1 kmh 29.81 in1009.5 mb 0.00 in0.0 mm 0.00 in0.0 mm 0.01 in0.3 mm
08:15 AM 69.1°F20.6°C 68.8°F20.4°C 99% 0.7 mph NNE1.1 kmh NNE 2.2 mph3.5 kmh 29.82 in1009.8 mb 0.00 in0.0 mm 0.00 in0.0 mm 0.01 in0.3 mm
08:30 AM 69.6°F20.9°C 69.4°F20.8°C 99% 1.6 mph NE2.6 kmh NE 3.8 mph6.1 kmh 29.82 in1009.8 mb 0.00 in0.0 mm 0.00 in0.0 mm 0.01 in0.3 mm
08:45 AM 70.0°F21.1°C 69.7°F20.9°C 99% Calm Calm 3.1 mph5.0 kmh 29.82 in1009.8 mb 0.00 in0.0 mm 0.00 in0.0 mm 0.01 in0.3 mm
09:00 AM 70.5°F21.4°C 70.3°F21.3°C 99% Calm Calm 4.5 mph7.2 kmh 29.83 in1010.2 mb 0.00 in0.0 mm 0.00 in0.0 mm 0.01 in0.3 mm
09:15 AM 71.6°F22.0°C 71.3°F21.8°C 99% 0.7 mph NE1.1 kmh NE 3.1 mph5.0 kmh 29.83 in1010.2 mb 0.00 in0.0 mm 0.00 in0.0 mm 0.01 in0.3 mm
09:30 AM 72.3°F22.4°C 72.1°F22.3°C 99% 0.7 mph NE1.1 kmh NE 5.4 mph8.7 kmh 29.83 in1010.2 mb 0.00 in0.0 mm 0.00 in0.0 mm 0.01 in0.3 mm
09:45 AM 73.9°F23.3°C 73.7°F23.2°C 99% 0.7 mph E1.1 kmh E 3.8 mph6.1 kmh 29.83 in1010.2 mb 0.00 in0.0 mm 0.00 in0.0 mm 0.01 in0.3 mm
10:00 AM 74.8°F23.8°C 74.6°F23.7°C 99% 1.6 mph SE2.6 kmh SE 3.8 mph6.1 kmh 29.83 in1010.2 mb 0.00 in0.0 mm 0.00 in0.0 mm 0.01 in0.3 mm
10:15 AM 75.4°F24.1°C 75.1°F23.9°C 99% 1.6 mph SE2.6 kmh SE 9.2 mph14.8 kmh 29.82 in1009.8 mb 0.00 in0.0 mm 0.00 in0.0 mm 0.01 in0.3 mm
10:30 AM 77.0°F25.0°C 76.8°F24.9°C 99% 1.6 mph E2.6 kmh E 5.4 mph8.7 kmh 29.82 in1009.8 mb 0.00 in0.0 mm 0.00 in0.0 mm 0.01 in0.3 mm
10:45 AM 77.7°F25.4°C 75.9°F24.4°C 94% 0.7 mph SE1.1 kmh SE 4.5 mph7.2 kmh 29.83 in1010.2 mb 0.00 in0.0 mm 0.00 in0.0 mm 0.01 in0.3 mm
11:00 AM 78.6°F25.9°C 76.2°F24.6°C 92% Calm Calm 3.8 mph6.1 kmh 29.83 in1010.2 mb 0.00 in0.0 mm 0.00 in0.0 mm 0.01 in0.3 mm
11:15 AM 80.2°F26.8°C 77.1°F25.1°C 90% 0.7 mph NNW1.1 kmh NNW 3.1 mph5.0 kmh 29.83 in1010.2 mb 0.00 in0.0 mm 0.00 in0.0 mm 0.01 in0.3 mm
11:30 AM 81.3°F27.4°C 76.8°F24.9°C 86% 0.7 mph NNE1.1 kmh NNE 3.8 mph6.1 kmh 29.83 in1010.2 mb 0.00 in0.0 mm 0.00 in0.0 mm 0.01 in0.3 mm
11:45 AM 81.5°F27.5°C 76.3°F24.6°C 84% Calm Calm 3.8 mph6.1 kmh 29.82 in1009.8 mb 0.00 in0.0 mm 0.00 in0.0 mm 0.01 in0.3 mm
12:00 PM 81.0°F27.2°C 75.7°F24.3°C 84% 0.7 mph SE1.1 kmh SE 3.8 mph6.1 kmh 29.83 in1010.2 mb 0.00 in0.0 mm 0.00 in0.0 mm 0.01 in0.3 mm
12:15 PM 80.6°F27.0°C 75.7°F24.3°C 85% 0.7 mph SSW1.1 kmh SSW 3.8 mph6.1 kmh 29.82 in1009.8 mb 0.00 in0.0 mm 0.00 in0.0 mm 0.01 in0.3 mm
12:30 PM 81.1°F27.3°C 75.9°F24.4°C 84% 0.7 mph ESE1.1 kmh ESE 5.4 mph8.7 kmh 29.82 in1009.8 mb 0.00 in0.0 mm 0.00 in0.0 mm 0.01 in0.3 mm
12:45 PM 81.3°F27.4°C 75.7°F24.3°C 83% 0.7 mph NNE1.1 kmh NNE 5.4 mph8.7 kmh 29.80 in1009.1 mb 0.00 in0.0 mm 0.00 in0.0 mm 0.01 in0.3 mm
01:00 PM 81.9°F27.7°C 76.6°F24.8°C 84% 0.7 mph SSE1.1 kmh SSE 3.8 mph6.1 kmh 29.80 in1009.1 mb 0.00 in0.0 mm 0.00 in0.0 mm 0.01 in0.3 mm
01:15 PM 82.9°F28.3°C 76.6°F24.8°C 81% Calm Calm 3.1 mph5.0 kmh 29.80 in1009.1 mb 0.00 in0.0 mm 0.00 in0.0 mm 0.01 in0.3 mm
01:30 PM 83.1°F28.4°C 76.7°F24.8°C 81% Calm Calm 2.2 mph3.5 kmh 29.80 in1009.1 mb 0.00 in0.0 mm 0.00 in0.0 mm 0.01 in0.3 mm
01:45 PM 85.1°F29.5°C 78.3°F25.7°C 80% 0.7 mph NE1.1 kmh NE 5.4 mph8.7 kmh 29.78 in1008.5 mb 0.00 in0.0 mm 0.00 in0.0 mm 0.01 in0.3 mm
02:00 PM 84.4°F29.1°C 77.2°F25.1°C 79% 0.7 mph N1.1 kmh N 3.8 mph6.1 kmh 29.79 in1008.8 mb 0.00 in0.0 mm 0.00 in0.0 mm 0.01 in0.3 mm
02:15 PM 82.0°F27.8°C 76.1°F24.5°C 82% 0.7 mph N1.1 kmh N 2.2 mph3.5 kmh 29.79 in1008.8 mb 0.00 in0.0 mm 0.00 in0.0 mm 0.01 in0.3 mm
02:30 PM 91.8°F33.2°C 87.1°F30.6°C 86% 2.2 mph SW3.5 kmh SW 4.5 mph7.2 kmh 29.79 in1008.8 mb 0.02 in0.5 mm 0.08 in2.0 mm 0.04 in1.0 mm
02:45 PM 77.4°F25.2°C 74.6°F23.7°C 91% Calm Calm 1.6 mph2.6 kmh 29.79 in1008.8 mb 0.05 in1.3 mm 0.12 in3.0 mm 0.06 in1.5 mm